Time;durP1;ratioP1;P1;durP2;ratioP2;P2;SDS_P1;SDS_P2;PMS_P1;PMS_P2;Temp;Humidity;BMP_temperature;BMP_pressure;BME280_temperature;BME280_humidity;BME280_pressure;Samples;Min_cycle;Max_cycle;Signal;HPM_P1;HPM_P2
2021/04/26 00:00:26;;;;;;;9.20;3.17;;;;;;;2.70;73.56;102373.34;1033520;28;20054;-75
2021/04/26 00:00:57;;;;;;;9.95;3.42;;;;;;;2.60;73.74;102365.00;1036436;28;20099;-75
2021/04/26 00:01:28;;;;;;;12.48;3.22;;;;;;;2.64;73.61;102363.56;1032376;28;20057;-75
2021/04/26 00:02:00;;;;;;;10.13;2.92;;;;;;;2.65;73.52;102365.34;1033655;28;20511;-75
2021/04/26 00:02:31;;;;;;;6.47;3.28;;;;;;;2.63;73.68;102364.34;1036561;28;20053;-75
2021/04/26 00:03:02;;;;;;;8.20;2.72;;;;;;;2.65;73.78;102365.34;1036420;28;20107;-75
2021/04/26 00:03:33;;;;;;;5.57;2.63;;;;;;;2.60;73.58;102370.13;1036447;28;20049;-75
2021/04/26 00:04:05;;;;;;;11.55;4.25;;;;;;;2.56;73.71;102367.25;1036539;28;20156;-75
2021/04/26 00:04:36;;;;;;;9.07;2.85;;;;;;;2.56;73.96;102369.81;1032891;28;20054;-75
2021/04/26 00:05:09;;;;;;;8.93;3.13;;;;;;;2.57;73.93;102369.03;1032287;28;20054;-75
2021/04/26 00:05:40;;;;;;;11.32;3.45;;;;;;;2.57;73.81;102367.34;1032494;28;20057;-75
2021/04/26 00:06:11;;;;;;;6.53;2.83;;;;;;;2.56;74.12;102364.69;1032859;28;20060;-75
2021/04/26 00:06:42;;;;;;;13.40;3.38;;;;;;;2.53;73.77;102365.34;1036279;28;20042;-75
2021/04/26 00:07:14;;;;;;;7.80;3.08;;;;;;;2.48;73.94;102366.69;1031967;28;20055;-75
2021/04/26 00:07:45;;;;;;;13.73;4.45;;;;;;;2.48;73.97;102374.34;1028765;28;20050;-75
2021/04/26 00:08:16;;;;;;;8.90;3.28;;;;;;;2.47;74.28;102371.69;1032122;28;20061;-75
2021/04/26 00:08:47;;;;;;;8.80;3.20;;;;;;;2.50;74.03;102371.94;1028804;28;20046;-75
2021/04/26 00:09:18;;;;;;;9.18;2.97;;;;;;;2.47;73.70;102362.38;1028349;28;20173;-75
2021/04/26 00:09:49;;;;;;;10.77;2.90;;;;;;;2.45;73.91;102374.16;1029950;28;20094;-75
2021/04/26 00:10:22;;;;;;;5.82;3.30;;;;;;;2.46;74.08;102363.16;1032633;28;20141;-75
2021/04/26 00:10:53;;;;;;;6.57;2.83;;;;;;;2.44;74.00;102367.28;1032476;28;20057;-75
2021/04/26 00:11:24;;;;;;;9.13;2.72;;;;;;;2.46;74.39;102367.38;1032182;28;20181;-75
2021/04/26 00:11:55;;;;;;;6.53;2.85;;;;;;;2.49;74.43;102368.47;1028898;28;20525;-75
2021/04/26 00:12:26;;;;;;;7.05;3.03;;;;;;;2.49;74.16;102368.47;1032667;28;20046;-75
2021/04/26 00:12:59;;;;;;;10.38;3.25;;;;;;;2.49;73.95;102367.56;1036265;28;20046;-75
2021/04/26 00:13:47;;;;;;;9.32;3.53;;;;;;;2.50;73.54;102365.16;1035152;28;20135;-75
2021/04/26 00:14:19;;;;;;;12.55;3.85;;;;;;;2.42;74.39;102358.59;1036311;28;20050;-75
2021/04/26 00:14:51;;;;;;;7.78;3.20;;;;;;;2.49;73.96;102367.56;1036248;28;20157;-75
2021/04/26 00:15:25;;;;;;;6.40;3.08;;;;;;;2.43;74.23;102364.56;1036512;28;20077;-75
2021/04/26 00:15:56;;;;;;;9.98;3.85;;;;;;;2.42;74.37;102363.69;1036359;28;20045;-75
2021/04/26 00:16:28;;;;;;;9.57;3.58;;;;;;;2.36;74.20;102364.13;1036468;28;20620;-75
2021/04/26 00:16:58;;;;;;;9.13;3.20;;;;;;;2.36;74.23;102361.59;1036321;28;20490;-75
2021/04/26 00:17:30;;;;;;;7.93;3.17;;;;;;;2.36;74.41;102363.25;1036518;28;20049;-75
2021/04/26 00:18:01;;;;;;;11.63;2.88;;;;;;;2.37;74.26;102358.25;1036241;28;20046;-75
2021/04/26 00:18:32;;;;;;;7.38;2.90;;;;;;;2.39;74.15;102368.59;1036410;28;20046;-75
2021/04/26 00:19:04;;;;;;;8.45;3.65;;;;;;;2.39;74.42;102356.72;1036366;28;20513;-75
2021/04/26 00:19:35;;;;;;;9.93;3.65;;;;;;;2.41;74.07;102350.81;1036377;28;20401;-75
2021/04/26 00:20:08;;;;;;;9.95;2.92;;;;;;;2.41;74.17;102359.38;1032274;28;20165;-75
2021/04/26 00:20:41;;;;;;;10.20;4.10;;;;;;;2.41;74.34;102364.47;1033181;28;20046;-75
2021/04/26 00:21:12;;;;;;;8.32;3.08;;;;;;;2.39;74.17;102356.72;1036280;28;20056;-75
2021/04/26 00:21:43;;;;;;;9.57;3.03;;;;;;;2.39;74.38;102366.94;1036299;28;20144;-75
2021/04/26 00:22:14;;;;;;;16.60;3.45;;;;;;;2.34;74.31;102357.16;1036436;28;20054;-75
2021/04/26 00:22:46;;;;;;;8.73;2.35;;;;;;;2.30;74.41;102361.16;1036157;28;20176;-75
2021/04/26 00:23:17;;;;;;;8.80;3.05;;;;;;;2.30;74.27;102357.72;1032313;28;20053;-75
2021/04/26 00:23:48;;;;;;;11.98;3.60;;;;;;;2.32;74.49;102358.69;1032319;28;20129;-75
2021/04/26 00:24:20;;;;;;;5.65;2.53;;;;;;;2.30;74.36;102352.59;1032801;28;20089;-75
2021/04/26 00:24:51;;;;;;;6.28;3.08;;;;;;;2.28;74.54;102349.94;1036480;28;20502;-75
2021/04/26 00:25:22;;;;;;;9.20;4.28;;;;;;;2.27;74.47;102360.94;1036682;28;20046;-76
2021/04/26 00:25:54;;;;;;;8.48;3.30;;;;;;;2.24;74.45;102352.16;1037829;28;20112;-76
2021/04/26 00:26:25;;;;;;;6.22;2.83;;;;;;;2.25;74.43;102343.72;1040503;28;20468;-75
2021/04/26 00:26:56;;;;;;;8.88;3.95;;;;;;;2.29;74.60;102350.81;1040454;28;20053;-75
2021/04/26 00:27:27;;;;;;;11.18;3.05;;;;;;;2.27;74.91;102358.38;1040340;28;20482;-75
2021/04/26 00:27:59;;;;;;;8.00;3.20;;;;;;;2.31;74.75;102355.25;1036736;28;20127;-75
2021/04/26 00:28:30;;;;;;;8.65;3.40;;;;;;;2.23;74.33;102346.16;1040270;28;20068;-76
2021/04/26 00:29:01;;;;;;;7.20;3.40;;;;;;;2.24;74.79;102349.59;1040260;28;20132;-76
2021/04/26 00:29:33;;;;;;;10.15;4.15;;;;;;;2.29;74.52;102353.38;1040343;28;20075;-76
2021/04/26 00:30:08;;;;;;;7.32;3.08;;;;;;;2.25;74.60;102357.38;1036316;28;20136;-75
2021/04/26 00:30:39;;;;;;;10.25;4.00;;;;;;;2.23;74.66;102353.81;1037196;28;20136;-75
2021/04/26 00:31:10;;;;;;;9.75;3.10;;;;;;;2.24;74.30;102347.94;1040416;28;20049;-75
2021/04/26 00:31:41;;;;;;;9.35;3.38;;;;;;;2.20;74.66;102350.16;1040326;28;20060;-75
2021/04/26 00:32:12;;;;;;;11.23;3.70;;;;;;;2.19;74.61;102349.25;1038526;28;20445;-75
2021/04/26 00:32:44;;;;;;;8.30;3.25;;;;;;;2.21;74.55;102349.38;1036198;28;20510;-75
2021/04/26 00:33:15;;;;;;;8.68;3.20;;;;;;;2.22;74.47;102348.63;1036386;28;20573;-76
2021/04/26 00:33:46;;;;;;;5.53;2.95;;;;;;;2.17;74.53;102348.28;1036306;28;20046;-75
2021/04/26 00:34:19;;;;;;;8.30;2.85;;;;;;;2.17;74.69;102344.84;1035645;28;20049;-75
2021/04/26 00:34:50;;;;;;;8.95;3.10;;;;;;;2.15;74.53;102342.16;1036205;28;20073;-75
2021/04/26 00:35:22;;;;;;;8.77;3.42;;;;;;;2.16;74.65;102354.16;1032744;28;20054;-75
2021/04/26 00:35:54;;;;;;;7.25;3.50;;;;;;;2.18;74.48;102352.59;1032064;28;20051;-75
2021/04/26 00:36:25;;;;;;;8.40;3.08;;;;;;;2.21;74.25;102344.25;1032847;28;20046;-76
2021/04/26 00:36:56;;;;;;;15.05;3.58;;;;;;;2.13;74.91;102339.50;1036862;28;20101;-75
2021/04/26 00:37:27;;;;;;;9.32;3.17;;;;;;;2.07;74.69;102340.72;1036778;28;20536;-75
2021/04/26 00:37:59;;;;;;;6.78;2.83;;;;;;;2.09;74.80;102344.25;1040454;28;20532;-75
2021/04/26 00:38:30;;;;;;;11.30;3.08;;;;;;;2.07;74.60;102343.28;1040316;28;20049;-75
2021/04/26 00:39:01;;;;;;;4.93;2.78;;;;;;;2.07;74.83;102345.81;1040236;28;20045;-75
2021/04/26 00:39:32;;;;;;;6.30;3.08;;;;;;;2.09;74.99;102341.72;1040506;28;20493;-75
2021/04/26 00:40:05;;;;;;;5.38;2.80;;;;;;;2.07;74.94;102339.03;1040389;28;20135;-75
2021/04/26 00:40:36;;;;;;;19.67;3.90;;;;;;;2.12;74.53;102336.84;1036055;28;20422;-75
2021/04/26 00:41:07;;;;;;;10.75;3.63;;;;;;;2.11;74.43;102341.06;1036944;28;20536;-75
2021/04/26 00:41:38;;;;;;;8.07;2.95;;;;;;;2.10;74.74;102334.19;1040365;28;20432;-75
2021/04/26 00:42:09;;;;;;;11.95;3.35;;;;;;;2.15;74.65;102343.81;1036588;28;20144;-75
2021/04/26 00:42:41;;;;;;;7.30;2.90;;;;;;;2.12;74.55;102336.84;1040366;28;20405;-75
2021/04/26 00:43:12;;;;;;;13.63;3.25;;;;;;;2.11;74.76;102338.50;1036271;28;20456;-76
2021/04/26 00:43:43;;;;;;;6.85;2.42;;;;;;;2.10;74.42;102341.84;1036721;28;20434;-76
2021/04/26 00:44:14;;;;;;;11.52;3.63;;;;;;;2.07;74.48;102340.72;1040432;28;20056;-75
2021/04/26 00:44:45;;;;;;;8.27;3.08;;;;;;;2.02;74.66;102336.94;1040456;28;20067;-75
2021/04/26 00:45:20;;;;;;;8.55;3.35;;;;;;;2.04;74.99;102343.03;1040189;28;20494;-75
2021/04/26 00:45:51;;;;;;;9.00;2.90;;;;;;;2.03;74.74;102342.16;1036288;28;20046;-75
2021/04/26 00:46:22;;;;;;;12.23;3.65;;;;;;;1.98;74.83;102337.47;1036295;28;20050;-75
2021/04/26 00:46:53;;;;;;;7.75;3.63;;;;;;;1.97;75.21;102336.59;1032173;28;20061;-75
2021/04/26 00:47:25;;;;;;;5.65;2.70;;;;;;;1.98;74.92;102338.38;1032540;28;20054;-75
2021/04/26 00:47:56;;;;;;;9.20;3.42;;;;;;;1.99;75.11;102339.28;1036177;28;20046;-75
2021/04/26 00:48:27;;;;;;;8.57;3.40;;;;;;;2.00;75.42;102330.84;1036515;28;20053;-75
2021/04/26 00:48:58;;;;;;;7.35;3.25;;;;;;;2.03;75.16;102339.59;1036181;28;20129;-75
2021/04/26 00:49:29;;;;;;;11.52;3.10;;;;;;;1.96;74.72;102339.03;1036281;28;20535;-75
2021/04/26 00:50:00;;;;;;;8.98;3.22;;;;;;;1.97;74.88;102334.03;1036630;28;20111;-75
2021/04/26 00:50:32;;;;;;;4.85;2.70;;;;;;;1.96;74.79;102328.84;1040181;28;20140;-75
2021/04/26 00:51:04;;;;;;;6.88;2.95;;;;;;;1.89;75.16;102332.59;1040261;28;20053;-75
2021/04/26 00:51:35;;;;;;;11.57;3.38;;;;;;;1.86;75.28;102328.16;1036164;28;20050;-75
2021/04/26 00:52:07;;;;;;;7.93;3.03;;;;;;;1.89;75.20;102326.63;1036631;28;20062;-75
2021/04/26 00:52:38;;;;;;;11.80;3.42;;;;;;;1.92;75.33;102329.38;1036352;28;20056;-75
2021/04/26 00:53:12;;;;;;;9.20;3.30;;;;;;;1.88;75.44;102327.41;1032652;28;20046;-75
2021/04/26 00:53:43;;;;;;;7.47;2.83;;;;;;;1.86;75.23;102325.59;1036173;28;20050;-75
2021/04/26 00:54:14;;;;;;;7.65;3.47;;;;;;;1.86;75.47;102325.59;1036922;28;20079;-75
2021/04/26 00:54:45;;;;;;;17.20;4.05;;;;;;;1.86;75.43;102329.81;1040211;28;20525;-75
2021/04/26 00:55:19;;;;;;;7.25;3.60;;;;;;;1.81;75.25;102323.47;1036490;28;20056;-75
2021/04/26 00:55:50;;;;;;;5.72;3.50;;;;;;;1.83;75.53;102330.47;1040252;28;20087;-75
2021/04/26 00:56:21;;;;;;;7.50;3.60;;;;;;;1.81;75.33;102326.91;1036179;28;20050;-75
2021/04/26 00:56:52;;;;;;;11.68;3.75;;;;;;;1.85;75.49;102325.50;1036783;28;20053;-75
2021/04/26 00:57:23;;;;;;;10.13;3.50;;;;;;;1.86;75.04;102327.25;1040398;28;20041;-75
2021/04/26 00:57:55;;;;;;;8.63;3.80;;;;;;;1.79;75.25;102331.03;1036721;28;20524;-75
2021/04/26 00:58:26;;;;;;;9.48;2.80;;;;;;;1.78;75.47;102323.28;1040397;28;20413;-75
2021/04/26 00:58:57;;;;;;;6.35;3.22;;;;;;;1.78;75.29;102325.81;1039803;28;20049;-75
2021/04/26 00:59:28;;;;;;;20.17;3.85;;;;;;;1.78;75.23;102325.81;1040338;28;20051;-75
2021/04/26 00:59:59;;;;;;;6.95;3.25;;;;;;;1.78;75.31;102331.81;1040116;28;20046;-75
2021/04/26 01:00:31;;;;;;;7.07;3.38;;;;;;;1.76;75.36;102324.78;1036170;28;20046;-75
2021/04/26 01:01:03;;;;;;;7.13;3.00;;;;;;;1.78;75.36;102323.28;1032618;28;20133;-75
2021/04/26 01:01:34;;;;;;;5.72;2.75;;;;;;;1.79;75.05;102320.81;1032178;28;20129;-75
2021/04/26 01:02:05;;;;;;;7.45;3.17;;;;;;;1.76;75.58;102320.63;1032491;28;20050;-75
2021/04/26 01:02:37;;;;;;;10.23;3.13;;;;;;;1.76;75.58;102319.69;1036572;28;20049;-75
2021/04/26 01:03:08;;;;;;;9.18;3.60;;;;;;;1.76;75.29;102319.69;1040233;28;20046;-75
2021/04/26 01:03:39;;;;;;;9.77;3.42;;;;;;;1.75;75.41;102323.03;1040242;28;20072;-75
2021/04/26 01:04:11;;;;;;;11.57;2.90;;;;;;;1.72;75.09;102318.59;1040191;28;20136;-75
2021/04/26 01:04:42;;;;;;;5.80;2.78;;;;;;;1.68;75.64;102314.03;1036674;28;20068;-75
2021/04/26 01:05:18;;;;;;;6.35;2.53;;;;;;;1.70;75.60;102303.94;1040397;28;20049;-75
2021/04/26 01:05:49;;;;;;;12.77;3.33;;;;;;;1.71;75.19;102319.38;1036276;28;20050;-75
2021/04/26 01:06:20;;;;;;;9.40;4.00;;;;;;;1.67;75.55;102314.81;1036768;28;20555;-75
2021/04/26 01:06:52;;;;;;;9.40;3.40;;;;;;;1.62;75.48;102316.13;1040232;28;20047;-75
2021/04/26 01:07:23;;;;;;;8.93;3.85;;;;;;;1.63;75.61;102312.81;1040185;28;20081;-75
2021/04/26 01:07:55;;;;;;;6.18;3.80;;;;;;;1.59;76.00;102321.91;1036049;28;20060;-75
2021/04/26 01:08:26;;;;;;;6.03;2.67;;;;;;;1.56;75.64;102314.00;1032647;28;20434;-75
2021/04/26 01:08:57;;;;;;;6.47;2.88;;;;;;;1.53;76.21;102313.81;1036053;28;20478;-75
2021/04/26 01:09:28;;;;;;;5.18;2.72;;;;;;;1.62;75.91;102320.34;1036618;28;20049;-75
2021/04/26 01:10:00;;;;;;;7.90;2.88;;;;;;;1.64;75.87;102316.25;1036456;28;20054;-75
2021/04/26 01:10:34;;;;;;;11.85;3.88;;;;;;;1.65;75.76;102324.03;1040279;28;20052;-75
2021/04/26 01:11:06;;;;;;;8.32;2.85;;;;;;;1.58;75.82;102320.09;1036135;28;20046;-75
2021/04/26 01:12:21;;;;;;;6.32;2.90;;;;;;;1.58;76.03;102320.09;1033143;28;20042;-75
2021/04/26 01:13:10;;;;;;;5.28;3.15;;;;;;;1.63;75.81;102319.56;1038167;28;20046;-75
2021/04/26 01:14:02;;;;;;;13.63;3.50;;;;;;;1.62;75.90;102316.13;1040341;28;20476;-75
2021/04/26 01:14:41;;;;;;;5.25;3.10;;;;;;;1.63;75.65;102322.13;1040043;28;20084;-75
2021/04/26 01:15:14;;;;;;;9.88;3.17;;;;;;;1.65;75.63;102326.56;1040169;28;20049;-75
2021/04/26 01:15:58;;;;;;;5.85;3.22;;;;;;;1.65;75.25;102329.13;1040227;28;20119;-75
2021/04/26 01:16:51;;;;;;;6.07;3.00;;;;;;;1.58;75.79;102322.66;1040158;28;20098;-75
2021/04/26 01:17:27;;;;;;;7.13;3.70;;;;;;;1.57;76.01;102330.19;1040335;28;20045;-75
2021/04/26 01:18:08;;;;;;;6.50;2.95;;;;;;;1.50;76.13;102320.31;1040234;28;20524;-75
2021/04/26 01:18:47;;;;;;;6.85;3.00;;;;;;;1.51;76.02;102322.09;1040191;28;20408;-75
2021/04/26 01:19:57;;;;;;;5.53;3.08;;;;;;;1.52;75.96;102324.75;1040409;28;20128;-75
2021/04/26 01:20:58;;;;;;;8.00;3.33;;;;;;;1.46;76.17;102320.84;1040343;28;20053;-75
2021/04/26 01:22:00;;;;;;;6.50;2.88;;;;;;;1.47;76.10;102320.97;1040363;28;20124;-75
2021/04/26 01:22:56;;;;;;;6.57;3.10;;;;;;;1.32;76.55;102312.19;1040213;28;20045;-75
2021/04/26 01:24:01;;;;;;;7.18;2.78;;;;;;;1.41;76.63;102317.06;1039873;28;20128;-75
2021/04/26 01:24:38;;;;;;;7.88;2.97;;;;;;;1.42;76.40;102312.09;1036097;28;20058;-75
2021/04/26 01:25:15;;;;;;;8.23;3.05;;;;;;;1.40;76.30;102306.00;1037485;28;20050;-75
2021/04/26 01:25:47;;;;;;;8.23;3.28;;;;;;;1.40;76.37;102308.53;1040107;28;20045;-75
2021/04/26 01:26:41;;;;;;;9.02;3.33;;;;;;;1.44;76.12;102310.56;1040235;28;20490;-75
2021/04/26 01:27:21;;;;;;;10.75;2.60;;;;;;;1.46;75.80;102313.22;1027652;28;20264;-76
2021/04/26 01:28:06;;;;;;;10.30;3.65;;;;;;;1.38;76.06;102306.66;1021244;28;20048;-75
2021/04/26 01:29:14;;;;;;;7.80;3.22;;;;;;;1.32;76.40;102302.88;1036084;28;20050;-75
2021/04/26 01:29:48;;;;;;;12.15;3.70;;;;;;;1.33;76.43;102304.63;1036110;28;20045;-75
2021/04/26 01:30:35;;;;;;;6.93;4.85;;;;;;;1.32;76.39;102300.31;1037612;28;20056;-75
2021/04/26 01:31:20;;;;;;;5.72;2.50;;;;;;;1.33;76.25;102303.75;1040070;28;20084;-75
2021/04/26 01:31:54;;;;;;;12.18;4.05;;;;;;;1.38;76.33;102306.66;1036039;28;20087;-75
2021/04/26 01:32:33;;;;;;;11.27;4.32;;;;;;;1.40;76.43;102303.44;1037799;28;20053;-75
2021/04/26 01:33:18;;;;;;;13.27;3.60;;;;;;;1.39;76.44;102305.88;1032098;28;20046;-75
2021/04/26 01:33:52;;;;;;;13.15;3.50;;;;;;;1.37;76.17;102304.88;1031854;28;20053;-75
2021/04/26 01:34:28;;;;;;;5.80;2.95;;;;;;;1.32;76.22;102295.22;1035885;28;20050;-75
2021/04/26 01:35:00;;;;;;;6.22;2.90;;;;;;;1.33;76.16;102301.22;1036198;28;20061;-76
2021/04/26 01:35:32;;;;;;;4.75;3.00;;;;;;;1.31;76.20;102288.34;1035910;28;20050;-75
2021/04/26 01:36:06;;;;;;;7.35;3.50;;;;;;;1.38;76.35;102294.78;1032038;28;20046;-75
2021/04/26 01:36:39;;;;;;;5.55;2.78;;;;;;;1.38;76.25;102291.38;1031957;28;20049;-75
2021/04/26 01:37:10;;;;;;;6.43;3.10;;;;;;;1.37;76.43;102289.59;1033064;28;20165;-75
2021/04/26 01:37:43;;;;;;;6.28;2.80;;;;;;;1.37;76.17;102297.25;1035935;28;20620;-75
2021/04/26 01:38:18;;;;;;;8.20;2.80;;;;;;;1.32;76.52;102289.25;1032126;28;20058;-75
2021/04/26 01:38:51;;;;;;;7.47;3.47;;;;;;;1.34;76.36;102290.22;1031810;28;20050;-75
2021/04/26 01:39:24;;;;;;;9.80;3.15;;;;;;;1.24;76.28;102270.81;1033551;28;20129;-75
2021/04/26 01:39:56;;;;;;;8.48;4.43;;;;;;;1.23;76.35;102279.22;1032085;28;20545;-75
2021/04/26 01:40:27;;;;;;;6.57;2.97;;;;;;;1.31;76.52;102282.38;1032944;28;20082;-75
2021/04/26 01:40:59;;;;;;;8.32;3.22;;;;;;;1.36;76.17;102292.88;1036208;28;20591;-75
2021/04/26 01:41:31;;;;;;;12.40;3.78;;;;;;;1.40;76.23;102289.81;1035999;28;20046;-75
2021/04/26 01:42:03;;;;;;;5.78;3.25;;;;;;;1.32;76.56;102290.13;1035994;28;20486;-75
2021/04/26 01:42:37;;;;;;;8.77;3.45;;;;;;;1.35;76.42;102289.44;1031962;28;20050;-75
2021/04/26 01:43:09;;;;;;;6.80;2.78;;;;;;;1.32;76.30;102289.25;1033066;28;20076;-75
2021/04/26 01:43:42;;;;;;;9.32;3.50;;;;;;;1.28;76.04;102287.22;1035739;28;20048;-75
2021/04/26 01:44:15;;;;;;;6.10;3.45;;;;;;;1.29;76.05;102289.00;1036149;28;20050;-75
2021/04/26 01:44:46;;;;;;;9.93;4.05;;;;;;;1.30;76.53;102285.66;1035997;28;20053;-75
2021/04/26 01:45:18;;;;;;;6.18;2.83;;;;;;;1.33;76.07;102288.47;1036046;28;20406;-75
2021/04/26 01:45:53;;;;;;;9.02;2.78;;;;;;;1.29;76.33;102297.53;1032668;28;20442;-75
2021/04/26 01:46:26;;;;;;;6.00;2.38;;;;;;;1.19;76.24;102287.44;1036130;28;20433;-75
2021/04/26 01:46:59;;;;;;;4.85;2.85;;;;;;;1.23;76.71;102291.09;1035927;28;20493;-75
2021/04/26 01:47:32;;;;;;;8.75;3.85;;;;;;;1.23;76.57;102286.88;1033134;28;20061;-75
2021/04/26 01:48:04;;;;;;;8.77;2.85;;;;;;;1.22;76.42;102290.19;1035941;28;20050;-75
2021/04/26 01:48:42;;;;;;;7.68;2.75;;;;;;;1.15;76.59;102293.06;1035856;28;20046;-75
2021/04/26 01:49:14;;;;;;;10.68;3.10;;;;;;;1.11;76.45;102288.50;1036121;28;20136;-75
2021/04/26 01:49:47;;;;;;;9.05;3.72;;;;;;;1.15;76.57;102289.63;1036402;28;20153;-75
2021/04/26 01:50:18;;;;;;;6.28;3.28;;;;;;;1.13;76.53;102284.38;1035917;28;20089;-75
2021/04/26 01:50:50;;;;;;;5.97;3.15;;;;;;;1.13;76.64;102284.38;1036120;28;20497;-75
2021/04/26 01:51:22;;;;;;;7.32;2.88;;;;;;;1.08;76.62;102283.19;1035885;28;20053;-75
2021/04/26 01:51:53;;;;;;;7.07;2.90;;;;;;;1.11;76.66;102279.97;1036033;28;20049;-75
2021/04/26 01:52:25;;;;;;;5.60;3.03;;;;;;;1.14;76.31;102278.53;1035990;28;20056;-75
2021/04/26 01:52:56;;;;;;;9.60;3.75;;;;;;;1.11;76.70;102287.59;1036097;28;20050;-75
2021/04/26 01:53:28;;;;;;;9.93;3.63;;;;;;;1.05;76.39;102282.94;1035966;28;20509;-75
2021/04/26 01:54:01;;;;;;;11.45;3.53;;;;;;;1.08;76.50;102292.47;1032031;28;20046;-75
2021/04/26 01:54:33;;;;;;;7.45;2.85;;;;;;;1.04;76.47;102291.34;1031860;28;20050;-75
2021/04/26 01:55:07;;;;;;;6.85;3.42;;;;;;;1.02;76.46;102288.69;1031838;28;20405;-75
2021/04/26 01:55:39;;;;;;;7.43;3.30;;;;;;;0.97;76.98;102286.56;1033081;28;20058;-75
2021/04/26 01:56:12;;;;;;;4.25;2.80;;;;;;;0.98;76.79;102285.78;1032859;28;20415;-75
2021/04/26 01:56:44;;;;;;;8.15;3.08;;;;;;;1.02;76.64;102287.78;1031977;28;20093;-75
2021/04/26 01:57:15;;;;;;;6.95;4.03;;;;;;;1.00;76.54;102289.34;1032046;28;20133;-75
2021/04/26 01:57:46;;;;;;;7.75;3.65;;;;;;;0.92;76.51;102286.22;1032883;28;20194;-75
2021/04/26 01:58:18;;;;;;;6.68;2.83;;;;;;;0.83;77.31;102289.69;1031830;28;20438;-75
2021/04/26 01:58:50;;;;;;;8.63;2.85;;;;;;;0.83;77.04;102287.16;1031972;28;20061;-75
2021/04/26 01:59:23;;;;;;;5.75;3.03;;;;;;;0.80;77.17;102277.63;1028389;28;20051;-75
2021/04/26 01:59:55;;;;;;;3.67;2.78;;;;;;;0.88;77.07;102280.75;1032571;28;20046;-75
2021/04/26 02:00:29;;;;;;;8.10;3.22;;;;;;;0.90;76.90;102282.63;1035931;28;20354;-75
2021/04/26 02:01:00;;;;;;;6.43;2.70;;;;;;;0.94;76.79;102277.00;1036121;28;20486;-75
2021/04/26 02:01:32;;;;;;;8.98;3.05;;;;;;;0.96;76.84;102282.22;1036262;28;20050;-75
2021/04/26 02:02:04;;;;;;;5.85;2.95;;;;;;;0.98;76.89;102281.59;1036377;28;20411;-75
2021/04/26 02:02:37;;;;;;;8.93;3.53;;;;;;;0.95;76.97;102281.34;1036198;28;20045;-75
2021/04/26 02:03:09;;;;;;;5.40;3.15;;;;;;;0.94;76.61;102279.56;1036166;28;20183;-75
2021/04/26 02:03:48;;;;;;;10.45;2.95;;;;;;;0.94;76.46;102278.69;1035975;28;20049;-75
2021/04/26 02:04:20;;;;;;;10.98;3.35;;;;;;;0.92;76.71;102275.13;1031871;28;20065;-75
2021/04/26 02:04:52;;;;;;;7.60;3.20;;;;;;;0.95;76.38;102280.44;1027799;28;20497;-75
2021/04/26 02:05:25;;;;;;;7.72;3.25;;;;;;;0.96;76.90;102278.00;1029466;28;20539;-75
2021/04/26 02:05:58;;;;;;;11.40;3.72;;;;;;;0.98;76.50;102279.03;1032888;28;20434;-75
2021/04/26 02:06:30;;;;;;;10.27;3.70;;;;;;;0.91;76.57;102274.25;1035890;28;20180;-75
2021/04/26 02:07:02;;;;;;;4.70;2.92;;;;;;;0.94;76.61;102283.78;1035816;28;20072;-75
2021/04/26 02:07:34;;;;;;;5.85;2.80;;;;;;;0.91;77.01;102283.53;1031919;28;20046;-75
2021/04/26 02:08:06;;;;;;;8.80;2.72;;;;;;;0.90;76.58;102285.19;1032580;28;20050;-75
2021/04/26 02:08:39;;;;;;;7.82;3.25;;;;;;;0.86;77.04;102282.31;1036062;28;20053;-75
2021/04/26 02:09:10;;;;;;;10.20;4.18;;;;;;;0.92;77.21;102290.41;1032646;28;20503;-75
2021/04/26 02:09:42;;;;;;;13.90;3.95;;;;;;;0.80;77.07;102277.63;1037336;28;20041;-75
2021/04/26 02:10:15;;;;;;;7.60;3.67;;;;;;;0.77;77.30;102277.38;1035762;28;20077;-75
2021/04/26 02:10:47;;;;;;;6.75;3.17;;;;;;;0.85;77.11;102277.97;1032366;28;20151;-75
2021/04/26 02:11:19;;;;;;;6.75;3.28;;;;;;;0.80;77.46;102282.72;1031556;28;20415;-75
2021/04/26 02:11:52;;;;;;;6.32;3.63;;;;;;;0.82;77.15;102278.63;1032884;28;20502;-75
2021/04/26 02:12:24;;;;;;;6.30;3.30;;;;;;;0.83;77.38;102280.41;1035815;28;20105;-75
2021/04/26 02:12:59;;;;;;;8.18;3.58;;;;;;;0.74;77.55;102284.81;1035600;28;20180;-75
2021/04/26 02:13:32;;;;;;;4.10;2.72;;;;;;;0.80;77.79;102275.09;1031889;28;20116;-75
2021/04/26 02:14:03;;;;;;;5.65;2.97;;;;;;;0.84;77.24;102276.19;1031985;28;20042;-75
2021/04/26 02:14:36;;;;;;;9.02;3.65;;;;;;;0.84;76.76;102273.63;1033418;28;20050;-75
2021/04/26 02:15:13;;;;;;;7.72;3.55;;;;;;;0.84;77.09;102279.63;1036770;28;20405;-75
2021/04/26 02:15:46;;;;;;;7.32;2.83;;;;;;;0.85;77.49;102276.34;1035968;28;20132;-75
2021/04/26 02:16:18;;;;;;;8.75;3.60;;;;;;;0.85;76.98;102271.22;1033415;28;20180;-75
2021/04/26 02:16:49;;;;;;;7.82;3.30;;;;;;;0.87;77.02;102271.34;1031952;28;20422;-75
2021/04/26 02:17:21;;;;;;;4.75;2.90;;;;;;;0.88;77.19;102279.09;1032578;28;20402;-75
2021/04/26 02:17:54;;;;;;;8.68;3.30;;;;;;;0.86;77.09;102274.66;1036527;28;20054;-75
2021/04/26 02:18:25;;;;;;;9.57;3.35;;;;;;;0.78;77.46;102267.31;1040052;28;20053;-75
2021/04/26 02:18:56;;;;;;;6.13;2.97;;;;;;;0.74;77.47;102272.94;1039933;28;20102;-75
2021/04/26 02:19:28;;;;;;;6.03;2.78;;;;;;;0.83;77.41;102275.31;1035941;28;20132;-75
2021/04/26 02:20:00;;;;;;;8.20;3.30;;;;;;;0.86;76.85;102269.56;1031878;28;20050;-75
2021/04/26 02:20:31;;;;;;;7.93;3.55;;;;;;;0.83;76.97;102272.75;1032478;28;20101;-75
2021/04/26 02:21:03;;;;;;;10.30;3.00;;;;;;;0.79;77.34;102271.66;1035006;28;20050;-75
2021/04/26 02:21:34;;;;;;;5.63;3.63;;;;;;;0.77;76.93;102269.75;1032567;28;20517;-75
2021/04/26 02:22:06;;;;;;;7.97;3.50;;;;;;;0.82;76.98;102272.66;1035993;28;20115;-75
2021/04/26 02:22:37;;;;;;;8.35;3.08;;;;;;;0.84;77.11;102273.63;1031930;28;20054;-75
2021/04/26 02:23:08;;;;;;;5.95;2.70;;;;;;;0.78;77.38;102267.31;1032444;28;20573;-75
2021/04/26 02:23:40;;;;;;;4.88;2.67;;;;;;;0.79;77.46;102273.28;1035839;28;20476;-75
2021/04/26 02:24:11;;;;;;;8.75;3.22;;;;;;;0.77;77.35;102278.25;1035985;28;20053;-75
2021/04/26 02:24:42;;;;;;;7.72;4.03;;;;;;;0.74;77.27;102269.53;1036106;28;20144;-75
2021/04/26 02:25:13;;;;;;;11.20;3.17;;;;;;;0.72;77.21;102269.38;1035906;28;20054;-75
2021/04/26 02:25:44;;;;;;;8.77;3.33;;;;;;;0.77;77.17;102272.28;1031676;28;20145;-75
2021/04/26 02:26:15;;;;;;;7.55;3.28;;;;;;;0.79;76.93;102270.72;1027890;28;20067;-75
2021/04/26 02:26:46;;;;;;;4.50;2.90;;;;;;;0.75;77.26;102273.84;1028299;28;20219;-75
2021/04/26 02:27:18;;;;;;;11.52;3.45;;;;;;;0.70;77.12;102267.50;1031779;28;20133;-75
2021/04/26 02:27:49;;;;;;;10.43;3.55;;;;;;;0.63;77.66;102273.78;1035700;28;20053;-75
2021/04/26 02:28:20;;;;;;;8.55;3.13;;;;;;;0.62;78.01;102274.53;1040088;28;20142;-75
2021/04/26 02:28:51;;;;;;;10.50;4.15;;;;;;;0.62;77.97;102274.53;1040097;28;20123;-75
2021/04/26 02:29:22;;;;;;;7.05;3.15;;;;;;;0.66;78.06;102276.53;1035853;28;20425;-75
2021/04/26 02:29:53;;;;;;;7.95;3.05;;;;;;;0.70;77.97;102272.59;1035862;28;20502;-75
2021/04/26 02:30:25;;;;;;;9.38;4.80;;;;;;;0.69;77.80;102269.16;1036385;28;20046;-75
2021/04/26 02:30:58;;;;;;;9.07;4.07;;;;;;;0.69;78.05;102270.81;1039874;28;20486;-75
2021/04/26 02:31:32;;;;;;;7.43;3.70;;;;;;;0.64;77.97;102270.47;1040061;28;20045;-75
2021/04/26 02:32:07;;;;;;;8.07;3.20;;;;;;;0.65;77.85;102267.13;1039063;28;20144;-75
2021/04/26 02:33:08;;;;;;;5.75;2.97;;;;;;;0.68;77.80;102271.56;1036756;28;20057;-75
2021/04/26 02:33:45;;;;;;;6.85;3.92;;;;;;;0.57;77.86;102264.75;1035892;28;20084;-75
2021/04/26 02:34:49;;;;;;;8.50;3.08;;;;;;;0.56;78.17;102265.53;1038856;28;20054;-75
2021/04/26 02:35:28;;;;;;;4.85;2.92;;;;;;;0.60;77.99;102262.44;1026142;28;20499;-75
2021/04/26 02:36:08;;;;;;;5.05;2.72;;;;;;;0.58;78.08;102272.53;1035946;28;20129;-75
2021/04/26 02:36:44;;;;;;;9.07;3.58;;;;;;;0.65;77.70;102269.69;1031827;28;20049;-75
2021/04/26 02:37:32;;;;;;;9.70;4.15;;;;;;;0.60;78.17;102272.63;1034888;28;20049;-75
2021/04/26 02:38:06;;;;;;;7.57;2.45;;;;;;;0.53;77.96;102264.53;1040042;28;20045;-75
2021/04/26 02:38:44;;;;;;;5.18;3.25;;;;;;;0.59;77.55;102266.66;1040126;28;20049;-75
2021/04/26 02:39:15;;;;;;;12.55;3.80;;;;;;;0.63;77.66;102267.81;1039865;28;20060;-75